TVS4584 EIDW-LFBT
Flight info
| Callsign | TVS4584 |
|---|---|
| Flight time | 1h 44m |
| Altitude | 37000 |
| Route | PESIT DCT BAKUR DCT GUBJE DCT GISOK DCT TACQI DCT MANIG DCT KORER UM616 TUPAR DCT CNA DCT UVELI DCT AGN |
| Aircraft | B738/M-SDE3FGHIJ1RWXYZ/LB1 |
Departure
| Time | 2026-04-21 15:35 |
|---|---|
| Airport | Dublin Airport (EIDW) |
Arrival
| Time | 2026-04-21 17:19 |
|---|---|
| Airport | Tarbes-Lourdes-Pyrénées Airport (LFBT) |
| Time | Latitude | Longitude | Altitude | Speed | Heading |
|---|---|---|---|---|---|
| 2026-04-21 15:16 | 53.42666 | -6.24704 | 210 ft | 0 kts | 147° |
| 2026-04-21 15:23 | 53.42672 | -6.24710 | 217 ft | 2 kts | 147° |
| 2026-04-21 15:24 | 53.42686 | -6.24724 | 215 ft | 2 kts | 171° |
| 2026-04-21 15:24 | 53.42696 | -6.24715 | 210 ft | 1 kts | 237° |
| 2026-04-21 15:26 | 53.42696 | -6.24717 | 210 ft | 0 kts | 238° |
| 2026-04-21 15:27 | 53.42695 | -6.24733 | 212 ft | 2 kts | 271° |
| 2026-04-21 15:27 | 53.42697 | -6.24771 | 210 ft | 4 kts | 268° |
| 2026-04-21 15:28 | 53.42682 | -6.24825 | 210 ft | 6 kts | 236° |
| 2026-04-21 15:28 | 53.42660 | -6.24896 | 216 ft | 8 kts | 269° |
| 2026-04-21 15:28 | 53.42701 | -6.24964 | 214 ft | 10 kts | 329° |
| 2026-04-21 15:28 | 53.42762 | -6.25028 | 213 ft | 11 kts | 323° |
| 2026-04-21 15:29 | 53.42794 | -6.25149 | 211 ft | 12 kts | 274° |
| 2026-04-21 15:29 | 53.42794 | -6.25231 | 210 ft | 7 kts | 259° |
| 2026-04-21 15:29 | 53.42757 | -6.25317 | 213 ft | 11 kts | 227° |
| 2026-04-21 15:29 | 53.42704 | -6.25413 | 211 ft | 11 kts | 227° |
| 2026-04-21 15:30 | 53.42646 | -6.25508 | 210 ft | 13 kts | 221° |
| 2026-04-21 15:30 | 53.42570 | -6.25636 | 210 ft | 17 kts | 226° |
| 2026-04-21 15:30 | 53.42484 | -6.25781 | 215 ft | 17 kts | 224° |
| 2026-04-21 15:30 | 53.42401 | -6.25921 | 213 ft | 17 kts | 225° |
| 2026-04-21 15:31 | 53.42323 | -6.26058 | 214 ft | 16 kts | 226° |
| 2026-04-21 15:31 | 53.42269 | -6.26214 | 213 ft | 15 kts | 255° |
| 2026-04-21 15:31 | 53.42269 | -6.26389 | 210 ft | 15 kts | 272° |
| 2026-04-21 15:31 | 53.42281 | -6.26555 | 214 ft | 14 kts | 276° |
| 2026-04-21 15:32 | 53.42289 | -6.26720 | 210 ft | 16 kts | 276° |
| 2026-04-21 15:32 | 53.42302 | -6.26952 | 210 ft | 23 kts | 275° |
| 2026-04-21 15:32 | 53.42317 | -6.27241 | 212 ft | 27 kts | 275° |
| 2026-04-21 15:32 | 53.42335 | -6.27563 | 210 ft | 27 kts | 275° |
| 2026-04-21 15:33 | 53.42352 | -6.27871 | 218 ft | 26 kts | 275° |
| 2026-04-21 15:33 | 53.42368 | -6.28158 | 210 ft | 24 kts | 275° |
| 2026-04-21 15:33 | 53.42383 | -6.28426 | 210 ft | 23 kts | 274° |
| 2026-04-21 15:33 | 53.42397 | -6.28682 | 210 ft | 22 kts | 275° |
| 2026-04-21 15:34 | 53.42409 | -6.28937 | 214 ft | 21 kts | 267° |
| 2026-04-21 15:34 | 53.42347 | -6.29074 | 213 ft | 15 kts | 186° |
| 2026-04-21 15:34 | 53.42256 | -6.29054 | 208 ft | 10 kts | 149° |
| 2026-04-21 15:34 | 53.42238 | -6.28917 | 213 ft | 17 kts | 94° |
| 2026-04-21 15:35 | 53.42207 | -6.28349 | 220 ft | 87 kts | 94° |
| 2026-04-21 15:35 | 53.42133 | -6.26978 | 271 ft | 143 kts | 91° |
| 2026-04-21 15:35 | 53.42037 | -6.25235 | 1155 ft | 149 kts | 91° |
| 2026-04-21 15:35 | 53.41936 | -6.23394 | 2128 ft | 180 kts | 94° |
| 2026-04-21 15:36 | 53.41808 | -6.21097 | 3049 ft | 205 kts | 95° |
| 2026-04-21 15:36 | 53.41664 | -6.18567 | 4038 ft | 230 kts | 96° |
| 2026-04-21 15:36 | 53.41511 | -6.15821 | 5225 ft | 236 kts | 96° |
| 2026-04-21 15:36 | 53.41359 | -6.13066 | 6195 ft | 241 kts | 96° |
| 2026-04-21 15:37 | 53.41201 | -6.10217 | 6967 ft | 249 kts | 96° |
| 2026-04-21 15:37 | 53.41040 | -6.07315 | 7830 ft | 252 kts | 96° |
| 2026-04-21 15:37 | 53.40843 | -6.04367 | 8660 ft | 253 kts | 102° |
| 2026-04-21 15:37 | 53.40071 | -6.01746 | 9158 ft | 255 kts | 130° |
| 2026-04-21 15:38 | 53.38648 | -5.99975 | 9327 ft | 267 kts | 152° |
| 2026-04-21 15:38 | 53.36820 | -5.99238 | 9349 ft | 277 kts | 175° |
| 2026-04-21 15:38 | 53.34892 | -5.99662 | 9366 ft | 281 kts | 186° |
| 2026-04-21 15:38 | 53.32963 | -6.00310 | 9546 ft | 286 kts | 187° |
| 2026-04-21 15:39 | 53.31013 | -6.00966 | 10453 ft | 285 kts | 187° |
| 2026-04-21 15:39 | 53.29029 | -6.01620 | 10990 ft | 301 kts | 187° |
| 2026-04-21 15:39 | 53.26916 | -6.02517 | 11341 ft | 323 kts | 194° |
| 2026-04-21 15:39 | 53.24752 | -6.03670 | 12052 ft | 330 kts | 194° |
| 2026-04-21 15:40 | 53.22554 | -6.04836 | 12875 ft | 333 kts | 195° |
| 2026-04-21 15:40 | 53.20331 | -6.05994 | 13704 ft | 337 kts | 193° |
| 2026-04-21 15:40 | 53.18041 | -6.06870 | 14503 ft | 338 kts | 183° |
| 2026-04-21 15:40 | 53.15690 | -6.07177 | 15288 ft | 341 kts | 182° |
| 2026-04-21 15:41 | 53.13294 | -6.07498 | 16025 ft | 348 kts | 182° |
| 2026-04-21 15:41 | 53.10863 | -6.07638 | 16815 ft | 353 kts | 172° |
| 2026-04-21 15:41 | 53.08467 | -6.06685 | 17550 ft | 358 kts | 164° |
| 2026-04-21 15:41 | 53.06032 | -6.05530 | 18175 ft | 368 kts | 164° |
| 2026-04-21 15:42 | 53.03563 | -6.04353 | 18954 ft | 372 kts | 165° |
| 2026-04-21 15:42 | 53.01050 | -6.03168 | 19506 ft | 380 kts | 166° |
| 2026-04-21 15:42 | 52.98467 | -6.01968 | 20044 ft | 388 kts | 167° |
| 2026-04-21 15:42 | 52.95869 | -6.00772 | 20855 ft | 388 kts | 167° |
| 2026-04-21 15:43 | 52.93245 | -5.99572 | 21522 ft | 393 kts | 168° |
| 2026-04-21 15:43 | 52.90592 | -5.98367 | 22142 ft | 399 kts | 168° |
| 2026-04-21 15:43 | 52.87895 | -5.97147 | 22752 ft | 404 kts | 169° |
| 2026-04-21 15:43 | 52.85164 | -5.95913 | 23286 ft | 411 kts | 169° |
| 2026-04-21 15:44 | 52.82400 | -5.94667 | 23305 ft | 413 kts | 169° |
| 2026-04-21 15:44 | 52.79627 | -5.93415 | 23335 ft | 414 kts | 169° |
| 2026-04-21 15:44 | 52.76820 | -5.92151 | 23679 ft | 422 kts | 169° |
| 2026-04-21 15:44 | 52.73982 | -5.90874 | 24329 ft | 422 kts | 169° |
| 2026-04-21 15:45 | 52.71156 | -5.89601 | 24991 ft | 421 kts | 170° |
| 2026-04-21 15:45 | 52.68319 | -5.88326 | 25557 ft | 424 kts | 170° |
| 2026-04-21 15:45 | 52.65459 | -5.87045 | 26057 ft | 427 kts | 170° |
| 2026-04-21 15:45 | 52.62578 | -5.85757 | 26554 ft | 431 kts | 170° |
| 2026-04-21 15:46 | 52.59685 | -5.84465 | 27097 ft | 431 kts | 169° |
| 2026-04-21 15:46 | 52.56786 | -5.83170 | 27656 ft | 433 kts | 170° |
| 2026-04-21 15:46 | 52.53869 | -5.81870 | 28124 ft | 436 kts | 170° |
| 2026-04-21 15:46 | 52.50927 | -5.80561 | 28561 ft | 440 kts | 170° |
| 2026-04-21 15:47 | 52.47967 | -5.79245 | 29004 ft | 443 kts | 170° |
| 2026-04-21 15:47 | 52.44986 | -5.77921 | 29463 ft | 445 kts | 170° |
| 2026-04-21 15:47 | 52.41990 | -5.76592 | 29906 ft | 448 kts | 170° |
| 2026-04-21 15:47 | 52.38976 | -5.75250 | 30332 ft | 451 kts | 169° |
| 2026-04-21 15:48 | 52.35955 | -5.73811 | 30695 ft | 453 kts | 168° |
| 2026-04-21 15:48 | 52.32974 | -5.72335 | 31076 ft | 454 kts | 168° |
| 2026-04-21 15:48 | 52.29905 | -5.70816 | 31452 ft | 455 kts | 168° |
| 2026-04-21 15:48 | 52.26876 | -5.69336 | 31898 ft | 454 kts | 168° |
| 2026-04-21 15:49 | 52.23896 | -5.67872 | 32399 ft | 452 kts | 167° |
| 2026-04-21 15:49 | 52.20950 | -5.66078 | 32935 ft | 452 kts | 162° |
| 2026-04-21 15:49 | 52.18053 | -5.64086 | 33411 ft | 452 kts | 161° |
| 2026-04-21 15:49 | 52.15169 | -5.62051 | 33852 ft | 451 kts | 161° |
| 2026-04-21 15:50 | 52.12297 | -5.60047 | 34344 ft | 447 kts | 162° |
| 2026-04-21 15:50 | 52.09440 | -5.58097 | 34776 ft | 445 kts | 162° |
| 2026-04-21 15:50 | 52.06579 | -5.56176 | 35069 ft | 446 kts | 162° |
| 2026-04-21 15:50 | 52.03706 | -5.54241 | 35333 ft | 448 kts | 160° |
| 2026-04-21 15:51 | 52.00869 | -5.52139 | 35668 ft | 448 kts | 158° |
| 2026-04-21 15:51 | 51.98066 | -5.49926 | 36038 ft | 447 kts | 157° |
| 2026-04-21 15:51 | 51.95280 | -5.47678 | 36376 ft | 447 kts | 157° |
| 2026-04-21 15:51 | 51.92496 | -5.45432 | 36676 ft | 447 kts | 157° |
| 2026-04-21 15:52 | 51.90612 | -5.43923 | 36883 ft | 447 kts | 157° |
| 2026-04-21 15:52 | 51.87827 | -5.41707 | 37229 ft | 446 kts | 157° |
| 2026-04-21 15:52 | 51.82191 | -5.37271 | 37265 ft | 453 kts | 157° |
| 2026-04-21 15:53 | 51.76556 | -5.32862 | 37236 ft | 445 kts | 157° |
| 2026-04-21 15:53 | 51.70999 | -5.28528 | 37248 ft | 444 kts | 157° |
| 2026-04-21 15:54 | 51.65434 | -5.24200 | 37236 ft | 444 kts | 157° |
| 2026-04-21 15:54 | 51.59863 | -5.19877 | 37238 ft | 444 kts | 157° |
| 2026-04-21 15:55 | 51.54289 | -5.15562 | 37240 ft | 445 kts | 157° |
| 2026-04-21 15:55 | 51.48918 | -5.10740 | 37223 ft | 450 kts | 144° |
| 2026-04-21 15:56 | 51.44204 | -5.04114 | 37226 ft | 451 kts | 141° |
| 2026-04-21 15:56 | 51.39545 | -4.97376 | 37229 ft | 451 kts | 141° |
| 2026-04-21 15:57 | 51.34853 | -4.90702 | 37231 ft | 451 kts | 141° |
| 2026-04-21 15:57 | 51.30134 | -4.84068 | 37223 ft | 452 kts | 141° |
| 2026-04-21 15:58 | 51.25406 | -4.77450 | 37232 ft | 452 kts | 141° |
| 2026-04-21 15:58 | 51.20675 | -4.70842 | 37207 ft | 453 kts | 141° |
| 2026-04-21 15:59 | 51.15930 | -4.64233 | 37213 ft | 453 kts | 141° |
| 2026-04-21 15:59 | 51.11185 | -4.57641 | 37213 ft | 453 kts | 141° |
| 2026-04-21 16:00 | 51.06431 | -4.51054 | 37205 ft | 453 kts | 141° |
| 2026-04-21 16:00 | 51.01467 | -4.44956 | 37213 ft | 449 kts | 150° |
| 2026-04-21 16:01 | 50.96154 | -4.39726 | 37198 ft | 449 kts | 152° |
| 2026-04-21 16:01 | 50.90822 | -4.34557 | 37197 ft | 450 kts | 151° |
| 2026-04-21 16:02 | 50.85508 | -4.29334 | 37195 ft | 450 kts | 151° |
| 2026-04-21 16:02 | 50.80206 | -4.24086 | 37198 ft | 449 kts | 151° |
| 2026-04-21 16:03 | 50.74910 | -4.18847 | 37183 ft | 449 kts | 151° |
| 2026-04-21 16:03 | 50.69642 | -4.13649 | 37190 ft | 450 kts | 151° |
| 2026-04-21 16:04 | 50.64327 | -4.08421 | 37199 ft | 451 kts | 151° |
| 2026-04-21 16:04 | 50.59004 | -4.03201 | 37196 ft | 451 kts | 151° |
| 2026-04-21 16:05 | 50.53670 | -3.97983 | 37187 ft | 451 kts | 152° |
| 2026-04-21 16:05 | 50.48337 | -3.92781 | 37189 ft | 451 kts | 152° |
| 2026-04-21 16:06 | 50.43001 | -3.87590 | 37191 ft | 451 kts | 152° |
| 2026-04-21 16:06 | 50.37665 | -3.82412 | 37197 ft | 451 kts | 151° |
| 2026-04-21 16:07 | 50.32331 | -3.77250 | 37187 ft | 450 kts | 151° |
| 2026-04-21 16:07 | 50.27002 | -3.72107 | 37181 ft | 450 kts | 152° |
| 2026-04-21 16:08 | 50.19015 | -3.64424 | 37188 ft | 450 kts | 152° |
| 2026-04-21 16:09 | 50.13683 | -3.59312 | 37180 ft | 450 kts | 152° |
| 2026-04-21 16:09 | 50.08353 | -3.54216 | 37186 ft | 450 kts | 152° |
| 2026-04-21 16:10 | 50.03014 | -3.49123 | 37185 ft | 450 kts | 152° |
| 2026-04-21 16:10 | 49.97664 | -3.44036 | 37184 ft | 451 kts | 152° |
| 2026-04-21 16:11 | 49.92305 | -3.38951 | 37187 ft | 452 kts | 152° |
| 2026-04-21 16:11 | 49.86936 | -3.33869 | 37174 ft | 452 kts | 152° |
| 2026-04-21 16:12 | 49.82465 | -3.29648 | 37169 ft | 453 kts | 152° |
| 2026-04-21 16:12 | 49.75890 | -3.24760 | 37174 ft | 445 kts | 170° |
| 2026-04-21 16:13 | 49.69886 | -3.22544 | 37152 ft | 444 kts | 172° |
| 2026-04-21 16:13 | 49.63873 | -3.20387 | 37158 ft | 444 kts | 171° |
| 2026-04-21 16:14 | 49.57869 | -3.18183 | 37166 ft | 443 kts | 171° |
| 2026-04-21 16:14 | 49.51870 | -3.15951 | 37154 ft | 443 kts | 170° |
| 2026-04-21 16:15 | 49.45877 | -3.13718 | 37145 ft | 443 kts | 171° |
| 2026-04-21 16:15 | 49.39888 | -3.11492 | 37143 ft | 443 kts | 170° |
| 2026-04-21 16:16 | 49.33900 | -3.09272 | 37141 ft | 443 kts | 170° |
| 2026-04-21 16:16 | 49.27907 | -3.07056 | 37129 ft | 443 kts | 171° |
| 2026-04-21 16:17 | 49.21921 | -3.04849 | 37122 ft | 443 kts | 170° |
| 2026-04-21 16:17 | 49.15933 | -3.02647 | 37124 ft | 442 kts | 170° |
| 2026-04-21 16:18 | 49.09947 | -3.00451 | 37114 ft | 442 kts | 170° |
| 2026-04-21 16:18 | 49.03962 | -2.98261 | 37100 ft | 442 kts | 170° |
| 2026-04-21 16:19 | 48.97980 | -2.96077 | 37109 ft | 442 kts | 170° |
| 2026-04-21 16:19 | 48.92000 | -2.93899 | 37112 ft | 442 kts | 170° |
| 2026-04-21 16:20 | 48.86064 | -2.91742 | 37100 ft | 441 kts | 170° |
| 2026-04-21 16:20 | 48.80051 | -2.89563 | 37094 ft | 441 kts | 170° |
| 2026-04-21 16:21 | 48.74077 | -2.87404 | 37086 ft | 441 kts | 170° |
| 2026-04-21 16:21 | 48.68144 | -2.85264 | 37079 ft | 441 kts | 170° |
| 2026-04-21 16:22 | 48.62173 | -2.83116 | 37077 ft | 441 kts | 170° |
| 2026-04-21 16:22 | 48.56207 | -2.80975 | 37083 ft | 440 kts | 171° |
| 2026-04-21 16:23 | 48.50245 | -2.78841 | 37066 ft | 440 kts | 171° |
| 2026-04-21 16:23 | 48.44285 | -2.76712 | 37062 ft | 440 kts | 171° |
| 2026-04-21 16:24 | 48.38328 | -2.74590 | 37055 ft | 440 kts | 171° |
| 2026-04-21 16:24 | 48.32381 | -2.72476 | 37050 ft | 439 kts | 171° |
| 2026-04-21 16:25 | 48.26435 | -2.70368 | 37044 ft | 439 kts | 171° |
| 2026-04-21 16:25 | 48.20496 | -2.68267 | 37036 ft | 438 kts | 171° |
| 2026-04-21 16:26 | 48.14564 | -2.66174 | 37031 ft | 437 kts | 171° |
| 2026-04-21 16:26 | 48.08648 | -2.64091 | 37029 ft | 437 kts | 171° |
| 2026-04-21 16:27 | 48.02732 | -2.62013 | 37020 ft | 436 kts | 171° |
| 2026-04-21 16:27 | 47.96831 | -2.59945 | 37018 ft | 435 kts | 171° |
| 2026-04-21 16:28 | 47.90941 | -2.57886 | 37010 ft | 434 kts | 171° |
| 2026-04-21 16:28 | 47.85061 | -2.55835 | 37004 ft | 434 kts | 171° |
| 2026-04-21 16:29 | 47.80178 | -2.54135 | 36994 ft | 433 kts | 171° |
| 2026-04-21 16:29 | 47.73320 | -2.51753 | 36990 ft | 433 kts | 171° |
| 2026-04-21 16:29 | 47.70432 | -2.50419 | 36988 ft | 439 kts | 160° |
| 2026-04-21 16:30 | 47.67764 | -2.48172 | 37006 ft | 445 kts | 148° |
| 2026-04-21 16:30 | 47.65425 | -2.45123 | 36998 ft | 451 kts | 135° |
| 2026-04-21 16:30 | 47.63362 | -2.41615 | 37009 ft | 452 kts | 133° |
| 2026-04-21 16:31 | 47.59304 | -2.34466 | 36993 ft | 454 kts | 133° |
| 2026-04-21 16:31 | 47.55210 | -2.27348 | 36990 ft | 454 kts | 134° |
| 2026-04-21 16:32 | 47.51069 | -2.20272 | 36994 ft | 455 kts | 134° |
| 2026-04-21 16:32 | 47.46906 | -2.13207 | 36992 ft | 456 kts | 134° |
| 2026-04-21 16:33 | 47.42739 | -2.06148 | 36988 ft | 456 kts | 134° |
| 2026-04-21 16:33 | 47.38564 | -1.99089 | 36998 ft | 456 kts | 134° |
| 2026-04-21 16:34 | 47.34382 | -1.92038 | 36990 ft | 457 kts | 134° |
| 2026-04-21 16:34 | 47.30901 | -1.86171 | 36987 ft | 457 kts | 134° |
| 2026-04-21 16:35 | 47.26718 | -1.79126 | 36994 ft | 457 kts | 134° |
| 2026-04-21 16:35 | 47.21851 | -1.70950 | 36994 ft | 457 kts | 134° |
| 2026-04-21 16:36 | 47.18340 | -1.65067 | 36994 ft | 456 kts | 134° |
| 2026-04-21 16:36 | 47.14001 | -1.58293 | 36997 ft | 453 kts | 141° |
| 2026-04-21 16:37 | 47.09280 | -1.52199 | 36980 ft | 452 kts | 143° |
| 2026-04-21 16:37 | 47.04546 | -1.46123 | 36977 ft | 452 kts | 142° |
| 2026-04-21 16:38 | 46.99847 | -1.39977 | 36972 ft | 453 kts | 142° |
| 2026-04-21 16:38 | 46.95148 | -1.33828 | 36968 ft | 453 kts | 142° |
| 2026-04-21 16:39 | 46.90457 | -1.27702 | 36969 ft | 452 kts | 142° |
| 2026-04-21 16:39 | 46.85766 | -1.21587 | 36972 ft | 451 kts | 142° |
| 2026-04-21 16:40 | 46.81080 | -1.15493 | 36969 ft | 451 kts | 142° |
| 2026-04-21 16:40 | 46.76384 | -1.09400 | 36971 ft | 452 kts | 142° |
| 2026-04-21 16:41 | 46.71687 | -1.03321 | 36969 ft | 452 kts | 142° |
| 2026-04-21 16:41 | 46.66975 | -0.97236 | 36968 ft | 453 kts | 142° |
| 2026-04-21 16:42 | 46.62260 | -0.91160 | 36963 ft | 453 kts | 142° |
| 2026-04-21 16:42 | 46.57535 | -0.85088 | 36966 ft | 453 kts | 142° |
| 2026-04-21 16:43 | 46.52853 | -0.79054 | 36960 ft | 454 kts | 142° |
| 2026-04-21 16:43 | 46.48125 | -0.72964 | 36955 ft | 454 kts | 142° |
| 2026-04-21 16:44 | 46.43237 | -0.67203 | 36952 ft | 450 kts | 153° |
| 2026-04-21 16:44 | 46.37582 | -0.63632 | 36967 ft | 442 kts | 167° |
| 2026-04-21 16:45 | 46.31700 | -0.61010 | 36940 ft | 442 kts | 167° |
| 2026-04-21 16:45 | 46.25823 | -0.58380 | 36945 ft | 443 kts | 167° |
| 2026-04-21 16:46 | 46.19944 | -0.55701 | 36939 ft | 443 kts | 167° |
| 2026-04-21 16:46 | 46.14068 | -0.53007 | 36921 ft | 443 kts | 167° |
| 2026-04-21 16:47 | 46.08201 | -0.50320 | 36923 ft | 442 kts | 167° |
| 2026-04-21 16:47 | 46.02341 | -0.47643 | 36932 ft | 441 kts | 167° |
| 2026-04-21 16:48 | 45.96491 | -0.44979 | 36908 ft | 441 kts | 167° |
| 2026-04-21 16:48 | 45.90651 | -0.42325 | 36904 ft | 439 kts | 167° |
| 2026-04-21 16:49 | 45.84831 | -0.39686 | 36905 ft | 438 kts | 167° |
| 2026-04-21 16:49 | 45.79019 | -0.37056 | 36913 ft | 438 kts | 167° |
| 2026-04-21 16:50 | 45.73253 | -0.34452 | 36909 ft | 437 kts | 167° |
| 2026-04-21 16:50 | 45.67460 | -0.31842 | 36909 ft | 437 kts | 167° |
| 2026-04-21 16:51 | 45.61812 | -0.28534 | 36923 ft | 441 kts | 158° |
| 2026-04-21 16:51 | 45.56320 | -0.24626 | 36906 ft | 441 kts | 157° |
| 2026-04-21 16:52 | 45.50823 | -0.20730 | 36902 ft | 441 kts | 158° |
| 2026-04-21 16:52 | 45.45309 | -0.16903 | 36891 ft | 441 kts | 158° |
| 2026-04-21 16:53 | 45.39790 | -0.13109 | 36886 ft | 440 kts | 158° |
| 2026-04-21 16:53 | 45.34271 | -0.09328 | 36879 ft | 440 kts | 158° |
| 2026-04-21 16:54 | 45.28756 | -0.05555 | 36864 ft | 440 kts | 158° |
| 2026-04-21 16:54 | 45.23239 | -0.01788 | 36862 ft | 440 kts | 158° |
| 2026-04-21 16:55 | 45.17737 | 0.01963 | 36641 ft | 436 kts | 159° |
| 2026-04-21 16:55 | 45.15026 | 0.03810 | 36326 ft | 428 kts | 159° |
| 2026-04-21 16:55 | 45.12345 | 0.05633 | 35816 ft | 426 kts | 159° |
| 2026-04-21 16:55 | 45.09677 | 0.07443 | 35412 ft | 423 kts | 159° |
| 2026-04-21 16:56 | 45.07031 | 0.09237 | 35010 ft | 420 kts | 159° |
| 2026-04-21 16:56 | 45.04407 | 0.11015 | 34629 ft | 417 kts | 159° |
| 2026-04-21 16:56 | 45.01779 | 0.12716 | 34087 ft | 415 kts | 165° |
| 2026-04-21 16:56 | 44.98997 | 0.13715 | 33198 ft | 411 kts | 177° |
| 2026-04-21 16:57 | 44.96172 | 0.13994 | 32502 ft | 403 kts | 186° |
| 2026-04-21 16:57 | 44.93389 | 0.13895 | 31942 ft | 398 kts | 187° |
| 2026-04-21 16:57 | 44.90635 | 0.13786 | 31398 ft | 394 kts | 186° |
| 2026-04-21 16:57 | 44.87908 | 0.13681 | 30845 ft | 390 kts | 186° |
| 2026-04-21 16:58 | 44.85208 | 0.13583 | 30288 ft | 387 kts | 186° |
| 2026-04-21 16:58 | 44.82517 | 0.13491 | 29716 ft | 384 kts | 186° |
| 2026-04-21 16:58 | 44.79894 | 0.13408 | 29111 ft | 381 kts | 186° |
| 2026-04-21 16:58 | 44.77258 | 0.13328 | 28493 ft | 377 kts | 186° |
| 2026-04-21 16:59 | 44.74642 | 0.13250 | 27875 ft | 375 kts | 186° |
| 2026-04-21 16:59 | 44.72043 | 0.13174 | 27267 ft | 372 kts | 185° |
| 2026-04-21 16:59 | 44.69467 | 0.13098 | 26684 ft | 369 kts | 185° |
| 2026-04-21 16:59 | 44.66911 | 0.13024 | 26110 ft | 366 kts | 185° |
| 2026-04-21 17:00 | 44.64369 | 0.12950 | 25553 ft | 364 kts | 185° |
| 2026-04-21 17:00 | 44.61850 | 0.12878 | 25024 ft | 361 kts | 185° |
| 2026-04-21 17:00 | 44.60158 | 0.12828 | 24647 ft | 359 kts | 185° |
| 2026-04-21 17:00 | 44.56857 | 0.12732 | 23953 ft | 357 kts | 185° |
| 2026-04-21 17:01 | 44.54385 | 0.12660 | 23439 ft | 355 kts | 185° |
| 2026-04-21 17:01 | 44.51923 | 0.12589 | 22851 ft | 352 kts | 185° |
| 2026-04-21 17:01 | 44.49482 | 0.12519 | 22305 ft | 349 kts | 185° |
| 2026-04-21 17:01 | 44.47071 | 0.12450 | 21783 ft | 345 kts | 185° |
| 2026-04-21 17:02 | 44.44679 | 0.12382 | 21247 ft | 342 kts | 185° |
| 2026-04-21 17:02 | 44.42309 | 0.12314 | 20728 ft | 340 kts | 185° |
| 2026-04-21 17:02 | 44.39957 | 0.12246 | 20197 ft | 337 kts | 185° |
| 2026-04-21 17:02 | 44.37622 | 0.12179 | 19697 ft | 334 kts | 185° |
| 2026-04-21 17:03 | 44.35303 | 0.12112 | 19209 ft | 332 kts | 185° |
| 2026-04-21 17:03 | 44.33000 | 0.12046 | 18736 ft | 330 kts | 185° |
| 2026-04-21 17:03 | 44.30719 | 0.11981 | 18280 ft | 327 kts | 185° |
| 2026-04-21 17:03 | 44.28448 | 0.11915 | 17771 ft | 325 kts | 184° |
| 2026-04-21 17:04 | 44.26201 | 0.11851 | 17273 ft | 322 kts | 184° |
| 2026-04-21 17:04 | 44.23977 | 0.11787 | 16800 ft | 318 kts | 184° |
| 2026-04-21 17:04 | 44.21775 | 0.11725 | 16318 ft | 315 kts | 184° |
| 2026-04-21 17:04 | 44.19583 | 0.11662 | 15943 ft | 314 kts | 184° |
| 2026-04-21 17:05 | 44.17411 | 0.11599 | 15629 ft | 311 kts | 184° |
| 2026-04-21 17:05 | 44.15258 | 0.11538 | 15298 ft | 308 kts | 184° |
| 2026-04-21 17:05 | 44.13122 | 0.11477 | 14939 ft | 307 kts | 184° |
| 2026-04-21 17:05 | 44.10996 | 0.11416 | 14596 ft | 305 kts | 184° |
| 2026-04-21 17:06 | 44.08882 | 0.11356 | 14276 ft | 302 kts | 184° |
| 2026-04-21 17:06 | 44.06783 | 0.11297 | 13952 ft | 300 kts | 183° |
| 2026-04-21 17:06 | 44.04701 | 0.11238 | 13635 ft | 298 kts | 184° |
| 2026-04-21 17:06 | 44.02634 | 0.11179 | 13263 ft | 296 kts | 184° |
| 2026-04-21 17:07 | 44.01269 | 0.11140 | 13024 ft | 296 kts | 184° |
| 2026-04-21 17:07 | 43.98562 | 0.11063 | 12551 ft | 293 kts | 183° |
| 2026-04-21 17:07 | 43.96524 | 0.11005 | 12189 ft | 292 kts | 183° |
| 2026-04-21 17:07 | 43.94501 | 0.10948 | 11861 ft | 289 kts | 184° |
| 2026-04-21 17:08 | 43.92497 | 0.10891 | 11522 ft | 287 kts | 183° |
| 2026-04-21 17:08 | 43.90501 | 0.10836 | 11184 ft | 286 kts | 184° |
| 2026-04-21 17:08 | 43.88527 | 0.10780 | 10919 ft | 281 kts | 184° |
| 2026-04-21 17:08 | 43.86584 | 0.10726 | 10678 ft | 277 kts | 183° |
| 2026-04-21 17:09 | 43.82773 | 0.10619 | 10107 ft | 272 kts | 184° |
| 2026-04-21 17:09 | 43.80886 | 0.10565 | 9814 ft | 270 kts | 184° |
| 2026-04-21 17:09 | 43.79020 | 0.10513 | 9523 ft | 267 kts | 184° |
| 2026-04-21 17:10 | 43.77159 | 0.10459 | 9150 ft | 268 kts | 184° |
| 2026-04-21 17:10 | 43.75296 | 0.10406 | 8818 ft | 267 kts | 184° |
| 2026-04-21 17:10 | 43.73437 | 0.10354 | 8501 ft | 266 kts | 184° |
| 2026-04-21 17:10 | 43.71593 | 0.10303 | 8222 ft | 264 kts | 184° |
| 2026-04-21 17:11 | 43.69752 | 0.10251 | 7849 ft | 266 kts | 184° |
| 2026-04-21 17:11 | 43.67903 | 0.10199 | 7505 ft | 266 kts | 184° |
| 2026-04-21 17:11 | 43.66071 | 0.10147 | 7273 ft | 261 kts | 183° |
| 2026-04-21 17:11 | 43.64235 | 0.10095 | 6846 ft | 266 kts | 183° |
| 2026-04-21 17:12 | 43.62396 | 0.10043 | 6623 ft | 263 kts | 182° |
| 2026-04-21 17:12 | 43.60555 | 0.09991 | 6264 ft | 265 kts | 182° |
| 2026-04-21 17:12 | 43.58719 | 0.09939 | 5974 ft | 263 kts | 181° |
| 2026-04-21 17:12 | 43.56894 | 0.09888 | 5713 ft | 261 kts | 181° |
| 2026-04-21 17:13 | 43.55084 | 0.09837 | 5423 ft | 259 kts | 181° |
| 2026-04-21 17:13 | 43.53293 | 0.09787 | 5169 ft | 256 kts | 180° |
| 2026-04-21 17:13 | 43.51504 | 0.09738 | 4820 ft | 258 kts | 180° |
| 2026-04-21 17:13 | 43.49724 | 0.09688 | 4636 ft | 252 kts | 179° |
| 2026-04-21 17:14 | 43.48018 | 0.09640 | 4522 ft | 244 kts | 179° |
| 2026-04-21 17:14 | 43.46339 | 0.09594 | 4469 ft | 240 kts | 179° |
| 2026-04-21 17:14 | 43.44668 | 0.09547 | 4405 ft | 240 kts | 179° |
| 2026-04-21 17:14 | 43.42994 | 0.09501 | 4364 ft | 241 kts | 179° |
| 2026-04-21 17:15 | 43.41312 | 0.09454 | 4317 ft | 243 kts | 178° |
| 2026-04-21 17:15 | 43.39604 | 0.09409 | 4272 ft | 248 kts | 179° |
| 2026-04-21 17:15 | 43.37876 | 0.09351 | 4193 ft | 251 kts | 181° |
| 2026-04-21 17:15 | 43.36189 | 0.08737 | 4080 ft | 251 kts | 200° |
| 2026-04-21 17:16 | 43.34575 | 0.07835 | 3994 ft | 241 kts | 198° |
| 2026-04-21 17:16 | 43.33053 | 0.07060 | 3882 ft | 226 kts | 197° |
| 2026-04-21 17:16 | 43.31610 | 0.06333 | 3690 ft | 217 kts | 197° |
| 2026-04-21 17:16 | 43.30230 | 0.05635 | 3418 ft | 206 kts | 197° |
| 2026-04-21 17:17 | 43.28923 | 0.04972 | 3168 ft | 195 kts | 196° |
| 2026-04-21 17:17 | 43.27706 | 0.04354 | 2934 ft | 184 kts | 195° |
| 2026-04-21 17:17 | 43.26539 | 0.03764 | 2724 ft | 173 kts | 197° |
| 2026-04-21 17:17 | 43.25457 | 0.03215 | 2486 ft | 161 kts | 195° |
| 2026-04-21 17:18 | 43.24413 | 0.02687 | 2269 ft | 157 kts | 194° |
| 2026-04-21 17:18 | 43.23400 | 0.02179 | 2080 ft | 161 kts | 196° |
| 2026-04-21 17:18 | 43.22371 | 0.01656 | 1868 ft | 156 kts | 198° |
| 2026-04-21 17:18 | 43.21363 | 0.01142 | 1661 ft | 155 kts | 198° |
| 2026-04-21 17:19 | 43.20359 | 0.00635 | 1455 ft | 153 kts | 200° |
| 2026-04-21 17:19 | 43.19362 | 0.00127 | 1272 ft | 152 kts | 199° |
| 2026-04-21 17:19 | 43.18439 | -0.00337 | 1202 ft | 102 kts | 201° |
| 2026-04-21 17:19 | 43.18062 | -0.00484 | 1214 ft | 29 kts | 141° |
| 2026-04-21 17:20 | 43.18045 | -0.00263 | 1211 ft | 23 kts | 67° |
| 2026-04-21 17:20 | 43.18143 | -0.00097 | 1207 ft | 22 kts | 34° |
| 2026-04-21 17:20 | 43.18276 | 0.00008 | 1203 ft | 20 kts | 29° |
| 2026-04-21 17:20 | 43.18387 | 0.00092 | 1215 ft | 18 kts | 29° |
| 2026-04-21 17:21 | 43.18421 | 0.00204 | 1212 ft | 5 kts | 91° |
| 2026-04-21 17:21 | 43.18453 | 0.00230 | 1211 ft | 6 kts | 15° |
| 2026-04-21 17:21 | 43.18480 | 0.00240 | 1210 ft | 1 kts | 15° |
| 2026-04-21 17:21 | 43.18486 | 0.00243 | 1210 ft | 2 kts | 17° |
| 2026-04-21 17:22 | 43.18495 | 0.00247 | 1210 ft | 0 kts | 17° |